sensor_id;sensor_type;location;lat;lon;timestamp;P1;durP1;ratioP1;P2;durP2;ratioP2
14292;SDS011;62290;59.420;17.842;2023-06-22T00:00:37;4.75;;;4.07;;
14292;SDS011;62290;59.420;17.842;2023-06-22T00:03:05;5.35;;;4.13;;
14292;SDS011;62290;59.420;17.842;2023-06-22T00:05:34;4.60;;;4.20;;
14292;SDS011;62290;59.420;17.842;2023-06-22T00:08:02;4.85;;;4.35;;
14292;SDS011;62290;59.420;17.842;2023-06-22T00:10:31;5.15;;;4.63;;
14292;SDS011;62290;59.420;17.842;2023-06-22T00:12:59;5.75;;;4.35;;
14292;SDS011;62290;59.420;17.842;2023-06-22T00:15:27;5.22;;;4.72;;
14292;SDS011;62290;59.420;17.842;2023-06-22T00:17:57;5.70;;;4.97;;
14292;SDS011;62290;59.420;17.842;2023-06-22T00:20:26;5.70;;;4.82;;
14292;SDS011;62290;59.420;17.842;2023-06-22T00:22:57;6.93;;;4.90;;
14292;SDS011;62290;59.420;17.842;2023-06-22T00:25:26;5.35;;;4.60;;
14292;SDS011;62290;59.420;17.842;2023-06-22T00:27:54;5.72;;;5.05;;
14292;SDS011;62290;59.420;17.842;2023-06-22T00:30:22;5.57;;;4.63;;
14292;SDS011;62290;59.420;17.842;2023-06-22T00:32:50;5.05;;;4.55;;
14292;SDS011;62290;59.420;17.842;2023-06-22T00:35:20;4.75;;;4.25;;
14292;SDS011;62290;59.420;17.842;2023-06-22T00:37:48;5.13;;;4.47;;
14292;SDS011;62290;59.420;17.842;2023-06-22T00:40:17;4.95;;;4.45;;
14292;SDS011;62290;59.420;17.842;2023-06-22T00:42:48;6.53;;;4.32;;
14292;SDS011;62290;59.420;17.842;2023-06-22T00:45:16;6.20;;;4.57;;
14292;SDS011;62290;59.420;17.842;2023-06-22T00:47:44;5.15;;;4.50;;
14292;SDS011;62290;59.420;17.842;2023-06-22T00:50:14;5.28;;;4.20;;
14292;SDS011;62290;59.420;17.842;2023-06-22T00:52:51;5.50;;;4.82;;
14292;SDS011;62290;59.420;17.842;2023-06-22T00:55:20;5.03;;;4.28;;
14292;SDS011;62290;59.420;17.842;2023-06-22T00:57:49;5.55;;;4.57;;
14292;SDS011;62290;59.420;17.842;2023-06-22T01:00:22;5.45;;;4.95;;
14292;SDS011;62290;59.420;17.842;2023-06-22T01:02:52;5.50;;;4.90;;
14292;SDS011;62290;59.420;17.842;2023-06-22T01:05:22;6.65;;;5.50;;
14292;SDS011;62290;59.420;17.842;2023-06-22T01:07:55;10.32;;;4.75;;
14292;SDS011;62290;59.420;17.842;2023-06-22T01:10:31;4.75;;;4.32;;
14292;SDS011;62290;59.420;17.842;2023-06-22T01:13:07;5.80;;;5.03;;
14292;SDS011;62290;59.420;17.842;2023-06-22T01:15:44;8.02;;;4.95;;
14292;SDS011;62290;59.420;17.842;2023-06-22T01:18:17;5.10;;;4.60;;
14292;SDS011;62290;59.420;17.842;2023-06-22T01:20:48;7.13;;;5.75;;
14292;SDS011;62290;59.420;17.842;2023-06-22T01:23:21;5.20;;;4.38;;
14292;SDS011;62290;59.420;17.842;2023-06-22T01:25:59;5.35;;;4.85;;
14292;SDS011;62290;59.420;17.842;2023-06-22T01:28:41;5.70;;;4.95;;
14292;SDS011;62290;59.420;17.842;2023-06-22T01:31:13;5.07;;;4.68;;
14292;SDS011;62290;59.420;17.842;2023-06-22T01:33:45;5.78;;;5.22;;
14292;SDS011;62290;59.420;17.842;2023-06-22T01:36:16;5.93;;;5.32;;
14292;SDS011;62290;59.420;17.842;2023-06-22T01:38:45;6.32;;;5.55;;
14292;SDS011;62290;59.420;17.842;2023-06-22T01:41:17;5.80;;;5.13;;
14292;SDS011;62290;59.420;17.842;2023-06-22T01:43:48;6.30;;;5.35;;
14292;SDS011;62290;59.420;17.842;2023-06-22T01:46:19;5.97;;;5.10;;
14292;SDS011;62290;59.420;17.842;2023-06-22T01:48:48;6.97;;;4.93;;
14292;SDS011;62290;59.420;17.842;2023-06-22T01:51:17;6.43;;;5.30;;
14292;SDS011;62290;59.420;17.842;2023-06-22T01:53:46;7.03;;;6.05;;
14292;SDS011;62290;59.420;17.842;2023-06-22T01:56:15;7.50;;;4.90;;
14292;SDS011;62290;59.420;17.842;2023-06-22T01:58:46;6.15;;;5.57;;
14292;SDS011;62290;59.420;17.842;2023-06-22T02:01:20;5.70;;;5.20;;
14292;SDS011;62290;59.420;17.842;2023-06-22T02:03:53;6.07;;;5.47;;
14292;SDS011;62290;59.420;17.842;2023-06-22T02:06:31;6.53;;;5.68;;
14292;SDS011;62290;59.420;17.842;2023-06-22T02:09:02;6.13;;;5.53;;
14292;SDS011;62290;59.420;17.842;2023-06-22T02:11:33;6.75;;;6.05;;
14292;SDS011;62290;59.420;17.842;2023-06-22T02:14:05;8.80;;;5.28;;
14292;SDS011;62290;59.420;17.842;2023-06-22T02:16:34;6.57;;;5.97;;
14292;SDS011;62290;59.420;17.842;2023-06-22T02:19:04;6.13;;;5.32;;
14292;SDS011;62290;59.420;17.842;2023-06-22T02:21:33;6.57;;;5.95;;
14292;SDS011;62290;59.420;17.842;2023-06-22T02:24:01;6.20;;;5.60;;
14292;SDS011;62290;59.420;17.842;2023-06-22T02:26:30;8.07;;;5.40;;
14292;SDS011;62290;59.420;17.842;2023-06-22T02:29:01;5.75;;;5.18;;
14292;SDS011;62290;59.420;17.842;2023-06-22T02:31:30;6.78;;;6.05;;
14292;SDS011;62290;59.420;17.842;2023-06-22T02:33:59;6.75;;;5.45;;
14292;SDS011;62290;59.420;17.842;2023-06-22T02:36:27;6.13;;;5.47;;
14292;SDS011;62290;59.420;17.842;2023-06-22T02:38:59;6.82;;;5.43;;
14292;SDS011;62290;59.420;17.842;2023-06-22T02:41:29;6.68;;;5.97;;
14292;SDS011;62290;59.420;17.842;2023-06-22T02:43:57;6.50;;;5.50;;
14292;SDS011;62290;59.420;17.842;2023-06-22T02:46:25;6.95;;;5.63;;
14292;SDS011;62290;59.420;17.842;2023-06-22T02:48:55;6.15;;;5.55;;
14292;SDS011;62290;59.420;17.842;2023-06-22T02:51:23;7.13;;;6.40;;
14292;SDS011;62290;59.420;17.842;2023-06-22T02:53:51;6.20;;;5.57;;
14292;SDS011;62290;59.420;17.842;2023-06-22T02:56:28;7.82;;;6.18;;
14292;SDS011;62290;59.420;17.842;2023-06-22T02:58:59;5.68;;;5.07;;
14292;SDS011;62290;59.420;17.842;2023-06-22T03:01:33;6.20;;;5.60;;
14292;SDS011;62290;59.420;17.842;2023-06-22T03:04:06;10.30;;;6.07;;
14292;SDS011;62290;59.420;17.842;2023-06-22T03:06:35;7.45;;;5.72;;
14292;SDS011;62290;59.420;17.842;2023-06-22T03:09:07;6.22;;;5.63;;
14292;SDS011;62290;59.420;17.842;2023-06-22T03:11:36;6.63;;;5.65;;
14292;SDS011;62290;59.420;17.842;2023-06-22T03:14:04;6.97;;;5.57;;
14292;SDS011;62290;59.420;17.842;2023-06-22T03:16:32;5.75;;;5.25;;
14292;SDS011;62290;59.420;17.842;2023-06-22T03:19:00;6.90;;;5.75;;
14292;SDS011;62290;59.420;17.842;2023-06-22T03:21:30;6.68;;;5.97;;
14292;SDS011;62290;59.420;17.842;2023-06-22T03:23:59;5.82;;;5.22;;
14292;SDS011;62290;59.420;17.842;2023-06-22T03:26:27;8.68;;;5.95;;
14292;SDS011;62290;59.420;17.842;2023-06-22T03:28:56;6.57;;;4.82;;
14292;SDS011;62290;59.420;17.842;2023-06-22T03:31:24;6.07;;;5.47;;
14292;SDS011;62290;59.420;17.842;2023-06-22T03:33:52;9.82;;;5.82;;
14292;SDS011;62290;59.420;17.842;2023-06-22T03:36:22;6.32;;;5.72;;
14292;SDS011;62290;59.420;17.842;2023-06-22T03:38:52;7.75;;;5.70;;
14292;SDS011;62290;59.420;17.842;2023-06-22T03:41:20;6.90;;;6.00;;
14292;SDS011;62290;59.420;17.842;2023-06-22T03:43:49;5.75;;;4.97;;
14292;SDS011;62290;59.420;17.842;2023-06-22T03:46:17;6.28;;;5.63;;
14292;SDS011;62290;59.420;17.842;2023-06-22T03:48:46;6.90;;;6.20;;
14292;SDS011;62290;59.420;17.842;2023-06-22T03:51:14;11.32;;;5.95;;
14292;SDS011;62290;59.420;17.842;2023-06-22T03:53:42;6.00;;;5.40;;
14292;SDS011;62290;59.420;17.842;2023-06-22T03:56:12;8.93;;;5.35;;
14292;SDS011;62290;59.420;17.842;2023-06-22T03:58:46;5.75;;;5.15;;
14292;SDS011;62290;59.420;17.842;2023-06-22T04:01:14;5.85;;;5.30;;
14292;SDS011;62290;59.420;17.842;2023-06-22T04:03:43;6.88;;;5.68;;
14292;SDS011;62290;59.420;17.842;2023-06-22T04:06:11;6.80;;;5.75;;
14292;SDS011;62290;59.420;17.842;2023-06-22T04:08:39;6.28;;;5.30;;
14292;SDS011;62290;59.420;17.842;2023-06-22T04:11:07;6.22;;;5.28;;
14292;SDS011;62290;59.420;17.842;2023-06-22T04:13:37;6.30;;;5.70;;
14292;SDS011;62290;59.420;17.842;2023-06-22T04:16:05;6.25;;;5.60;;
14292;SDS011;62290;59.420;17.842;2023-06-22T04:18:33;5.38;;;4.88;;
14292;SDS011;62290;59.420;17.842;2023-06-22T04:21:01;6.85;;;5.35;;
14292;SDS011;62290;59.420;17.842;2023-06-22T04:23:29;6.45;;;5.45;;
14292;SDS011;62290;59.420;17.842;2023-06-22T04:25:57;6.22;;;5.20;;
14292;SDS011;62290;59.420;17.842;2023-06-22T04:28:26;5.97;;;5.38;;
14292;SDS011;62290;59.420;17.842;2023-06-22T04:30:56;5.85;;;5.13;;
14292;SDS011;62290;59.420;17.842;2023-06-22T04:33:29;6.07;;;5.05;;
14292;SDS011;62290;59.420;17.842;2023-06-22T04:35:57;5.65;;;5.05;;
14292;SDS011;62290;59.420;17.842;2023-06-22T04:38:27;6.10;;;5.35;;
14292;SDS011;62290;59.420;17.842;2023-06-22T04:40:55;7.53;;;5.45;;
14292;SDS011;62290;59.420;17.842;2023-06-22T04:43:23;6.35;;;4.93;;
14292;SDS011;62290;59.420;17.842;2023-06-22T04:45:51;5.25;;;4.75;;
14292;SDS011;62290;59.420;17.842;2023-06-22T04:48:21;7.63;;;5.32;;
14292;SDS011;62290;59.420;17.842;2023-06-22T04:50:49;6.20;;;5.53;;
14292;SDS011;62290;59.420;17.842;2023-06-22T04:53:17;6.70;;;5.35;;
14292;SDS011;62290;59.420;17.842;2023-06-22T04:55:45;11.90;;;4.97;;
14292;SDS011;62290;59.420;17.842;2023-06-22T04:58:15;6.45;;;4.93;;
14292;SDS011;62290;59.420;17.842;2023-06-22T05:00:46;5.63;;;4.95;;
14292;SDS011;62290;59.420;17.842;2023-06-22T05:03:17;5.43;;;4.90;;
14292;SDS011;62290;59.420;17.842;2023-06-22T05:05:47;5.18;;;4.68;;
14292;SDS011;62290;59.420;17.842;2023-06-22T05:08:15;5.45;;;4.90;;
14292;SDS011;62290;59.420;17.842;2023-06-22T05:10:44;5.43;;;4.93;;
14292;SDS011;62290;59.420;17.842;2023-06-22T05:13:30;8.25;;;4.82;;
14292;SDS011;62290;59.420;17.842;2023-06-22T05:15:59;5.38;;;4.88;;
14292;SDS011;62290;59.420;17.842;2023-06-22T05:18:29;5.07;;;4.57;;
14292;SDS011;62290;59.420;17.842;2023-06-22T05:21:00;6.35;;;5.43;;
14292;SDS011;62290;59.420;17.842;2023-06-22T05:23:29;5.05;;;4.55;;
14292;SDS011;62290;59.420;17.842;2023-06-22T05:25:57;6.45;;;5.30;;
14292;SDS011;62290;59.420;17.842;2023-06-22T05:28:25;7.35;;;5.32;;
14292;SDS011;62290;59.420;17.842;2023-06-22T05:30:53;5.97;;;5.38;;
14292;SDS011;62290;59.420;17.842;2023-06-22T05:33:21;6.30;;;5.20;;
14292;SDS011;62290;59.420;17.842;2023-06-22T05:35:50;5.93;;;4.57;;
14292;SDS011;62290;59.420;17.842;2023-06-22T05:38:19;5.30;;;4.78;;
14292;SDS011;62290;59.420;17.842;2023-06-22T05:40:47;4.65;;;4.20;;
14292;SDS011;62290;59.420;17.842;2023-06-22T05:43:15;5.07;;;4.57;;
14292;SDS011;62290;59.420;17.842;2023-06-22T05:45:43;6.57;;;5.15;;
14292;SDS011;62290;59.420;17.842;2023-06-22T05:48:11;4.90;;;4.22;;
14292;SDS011;62290;59.420;17.842;2023-06-22T05:50:39;5.55;;;4.88;;
14292;SDS011;62290;59.420;17.842;2023-06-22T05:53:07;5.32;;;3.85;;
14292;SDS011;62290;59.420;17.842;2023-06-22T05:55:37;4.47;;;4.07;;
14292;SDS011;62290;59.420;17.842;2023-06-22T05:58:05;6.35;;;3.85;;
14292;SDS011;62290;59.420;17.842;2023-06-22T06:00:33;4.10;;;3.70;;
14292;SDS011;62290;59.420;17.842;2023-06-22T06:03:02;4.78;;;4.05;;
14292;SDS011;62290;59.420;17.842;2023-06-22T06:05:31;4.30;;;3.90;;
14292;SDS011;62290;59.420;17.842;2023-06-22T06:07:59;5.40;;;4.47;;
14292;SDS011;62290;59.420;17.842;2023-06-22T06:10:27;8.52;;;4.13;;
14292;SDS011;62290;59.420;17.842;2023-06-22T06:12:58;6.80;;;4.53;;
14292;SDS011;62290;59.420;17.842;2023-06-22T06:15:28;5.78;;;4.75;;
14292;SDS011;62290;59.420;17.842;2023-06-22T06:17:56;5.15;;;4.50;;
14292;SDS011;62290;59.420;17.842;2023-06-22T06:20:25;4.18;;;3.78;;
14292;SDS011;62290;59.420;17.842;2023-06-22T06:22:55;4.35;;;3.95;;
14292;SDS011;62290;59.420;17.842;2023-06-22T06:25:24;4.25;;;3.80;;
14292;SDS011;62290;59.420;17.842;2023-06-22T06:27:52;4.53;;;4.10;;
14292;SDS011;62290;59.420;17.842;2023-06-22T06:30:23;5.35;;;3.97;;
14292;SDS011;62290;59.420;17.842;2023-06-22T06:32:51;5.32;;;3.80;;
14292;SDS011;62290;59.420;17.842;2023-06-22T06:35:19;5.78;;;3.90;;
14292;SDS011;62290;59.420;17.842;2023-06-22T06:37:49;5.20;;;3.58;;
14292;SDS011;62290;59.420;17.842;2023-06-22T06:40:18;4.22;;;3.50;;
14292;SDS011;62290;59.420;17.842;2023-06-22T06:42:47;4.68;;;3.75;;
14292;SDS011;62290;59.420;17.842;2023-06-22T06:45:17;5.10;;;3.70;;
14292;SDS011;62290;59.420;17.842;2023-06-22T06:47:48;4.30;;;3.65;;
14292;SDS011;62290;59.420;17.842;2023-06-22T06:50:16;4.55;;;3.63;;
14292;SDS011;62290;59.420;17.842;2023-06-22T06:52:45;3.80;;;3.13;;
14292;SDS011;62290;59.420;17.842;2023-06-22T06:55:13;4.25;;;3.45;;
14292;SDS011;62290;59.420;17.842;2023-06-22T06:57:41;8.27;;;3.15;;
14292;SDS011;62290;59.420;17.842;2023-06-22T07:00:10;4.18;;;3.25;;
14292;SDS011;62290;59.420;17.842;2023-06-22T07:02:40;4.13;;;3.10;;
14292;SDS011;62290;59.420;17.842;2023-06-22T07:05:12;4.53;;;2.92;;
14292;SDS011;62290;59.420;17.842;2023-06-22T07:07:40;3.90;;;3.05;;
14292;SDS011;62290;59.420;17.842;2023-06-22T07:10:10;4.20;;;3.25;;
14292;SDS011;62290;59.420;17.842;2023-06-22T07:12:38;8.63;;;3.80;;
14292;SDS011;62290;59.420;17.842;2023-06-22T07:15:07;5.78;;;3.05;;
14292;SDS011;62290;59.420;17.842;2023-06-22T07:17:36;4.95;;;3.13;;
14292;SDS011;62290;59.420;17.842;2023-06-22T07:20:06;4.32;;;3.25;;
14292;SDS011;62290;59.420;17.842;2023-06-22T07:22:38;5.32;;;3.65;;
14292;SDS011;62290;59.420;17.842;2023-06-22T07:25:07;6.55;;;3.42;;
14292;SDS011;62290;59.420;17.842;2023-06-22T07:27:37;4.18;;;3.00;;
14292;SDS011;62290;59.420;17.842;2023-06-22T07:30:07;5.57;;;2.92;;
14292;SDS011;62290;59.420;17.842;2023-06-22T07:32:36;6.03;;;2.90;;
14292;SDS011;62290;59.420;17.842;2023-06-22T07:35:04;3.67;;;2.70;;
14292;SDS011;62290;59.420;17.842;2023-06-22T07:37:33;5.78;;;3.63;;
14292;SDS011;62290;59.420;17.842;2023-06-22T07:40:03;6.05;;;2.90;;
14292;SDS011;62290;59.420;17.842;2023-06-22T07:42:33;9.18;;;3.65;;
14292;SDS011;62290;59.420;17.842;2023-06-22T07:45:02;7.00;;;3.08;;
14292;SDS011;62290;59.420;17.842;2023-06-22T07:47:30;4.13;;;3.10;;
14292;SDS011;62290;59.420;17.842;2023-06-22T07:50:02;6.40;;;3.22;;
14292;SDS011;62290;59.420;17.842;2023-06-22T07:52:31;4.18;;;2.97;;
14292;SDS011;62290;59.420;17.842;2023-06-22T07:54:59;6.07;;;2.58;;
14292;SDS011;62290;59.420;17.842;2023-06-22T07:57:30;7.97;;;2.90;;
14292;SDS011;62290;59.420;17.842;2023-06-22T08:00:01;6.90;;;2.83;;
14292;SDS011;62290;59.420;17.842;2023-06-22T08:02:38;3.80;;;3.20;;
14292;SDS011;62290;59.420;17.842;2023-06-22T08:05:07;6.05;;;3.10;;
14292;SDS011;62290;59.420;17.842;2023-06-22T08:07:48;5.75;;;3.00;;
14292;SDS011;62290;59.420;17.842;2023-06-22T08:10:17;5.05;;;3.58;;
14292;SDS011;62290;59.420;17.842;2023-06-22T08:12:48;3.92;;;3.28;;
14292;SDS011;62290;59.420;17.842;2023-06-22T08:15:16;5.78;;;3.40;;
14292;SDS011;62290;59.420;17.842;2023-06-22T08:17:44;4.75;;;2.72;;
14292;SDS011;62290;59.420;17.842;2023-06-22T08:20:13;5.35;;;2.83;;
14292;SDS011;62290;59.420;17.842;2023-06-22T08:22:42;5.05;;;3.03;;
14292;SDS011;62290;59.420;17.842;2023-06-22T08:25:11;6.10;;;3.25;;
14292;SDS011;62290;59.420;17.842;2023-06-22T08:27:40;4.15;;;3.10;;
14292;SDS011;62290;59.420;17.842;2023-06-22T08:30:09;4.95;;;3.28;;
14292;SDS011;62290;59.420;17.842;2023-06-22T08:32:38;5.75;;;3.13;;
14292;SDS011;62290;59.420;17.842;2023-06-22T08:35:07;6.10;;;2.78;;
14292;SDS011;62290;59.420;17.842;2023-06-22T08:37:36;4.00;;;3.05;;
14292;SDS011;62290;59.420;17.842;2023-06-22T08:40:06;5.82;;;2.90;;
14292;SDS011;62290;59.420;17.842;2023-06-22T08:42:40;3.40;;;2.80;;
14292;SDS011;62290;59.420;17.842;2023-06-22T08:45:10;3.33;;;2.53;;
14292;SDS011;62290;59.420;17.842;2023-06-22T08:47:38;6.75;;;3.03;;
14292;SDS011;62290;59.420;17.842;2023-06-22T08:50:08;7.18;;;3.35;;
14292;SDS011;62290;59.420;17.842;2023-06-22T08:52:37;5.88;;;2.97;;
14292;SDS011;62290;59.420;17.842;2023-06-22T08:55:08;4.82;;;2.80;;
14292;SDS011;62290;59.420;17.842;2023-06-22T08:57:37;4.30;;;2.55;;
14292;SDS011;62290;59.420;17.842;2023-06-22T09:00:06;4.15;;;3.10;;
14292;SDS011;62290;59.420;17.842;2023-06-22T09:02:53;3.60;;;2.47;;
14292;SDS011;62290;59.420;17.842;2023-06-22T09:05:25;6.82;;;3.08;;
14292;SDS011;62290;59.420;17.842;2023-06-22T09:07:55;3.70;;;3.20;;
14292;SDS011;62290;59.420;17.842;2023-06-22T09:10:25;5.65;;;3.10;;
14292;SDS011;62290;59.420;17.842;2023-06-22T09:12:53;5.03;;;4.07;;
14292;SDS011;62290;59.420;17.842;2023-06-22T09:15:21;5.03;;;3.78;;
14292;SDS011;62290;59.420;17.842;2023-06-22T09:17:50;6.18;;;3.90;;
14292;SDS011;62290;59.420;17.842;2023-06-22T09:20:22;5.72;;;4.20;;
14292;SDS011;62290;59.420;17.842;2023-06-22T09:22:50;6.18;;;3.65;;
14292;SDS011;62290;59.420;17.842;2023-06-22T09:25:18;6.25;;;4.07;;
14292;SDS011;62290;59.420;17.842;2023-06-22T09:27:47;5.93;;;3.50;;
14292;SDS011;62290;59.420;17.842;2023-06-22T09:30:15;5.13;;;3.33;;
14292;SDS011;62290;59.420;17.842;2023-06-22T09:32:43;8.23;;;4.05;;
14292;SDS011;62290;59.420;17.842;2023-06-22T09:35:11;6.13;;;4.10;;
14292;SDS011;62290;59.420;17.842;2023-06-22T09:37:41;5.15;;;3.60;;
14292;SDS011;62290;59.420;17.842;2023-06-22T09:40:10;3.83;;;3.40;;
14292;SDS011;62290;59.420;17.842;2023-06-22T09:42:40;4.90;;;3.28;;
14292;SDS011;62290;59.420;17.842;2023-06-22T09:45:09;3.97;;;3.10;;
14292;SDS011;62290;59.420;17.842;2023-06-22T09:47:37;3.72;;;3.10;;
14292;SDS011;62290;59.420;17.842;2023-06-22T09:50:06;8.63;;;3.42;;
14292;SDS011;62290;59.420;17.842;2023-06-22T09:52:35;4.63;;;3.50;;
14292;SDS011;62290;59.420;17.842;2023-06-22T09:55:08;5.40;;;3.17;;
14292;SDS011;62290;59.420;17.842;2023-06-22T09:57:36;6.85;;;3.90;;
14292;SDS011;62290;59.420;17.842;2023-06-22T10:00:04;5.00;;;3.25;;
14292;SDS011;62290;59.420;17.842;2023-06-22T10:02:37;5.68;;;3.33;;
14292;SDS011;62290;59.420;17.842;2023-06-22T10:05:05;7.28;;;3.08;;
14292;SDS011;62290;59.420;17.842;2023-06-22T10:07:34;8.60;;;3.28;;
14292;SDS011;62290;59.420;17.842;2023-06-22T10:10:08;3.97;;;2.80;;
14292;SDS011;62290;59.420;17.842;2023-06-22T10:12:37;3.95;;;2.95;;
14292;SDS011;62290;59.420;17.842;2023-06-22T10:15:09;7.35;;;2.95;;
14292;SDS011;62290;59.420;17.842;2023-06-22T10:17:38;5.63;;;2.78;;
14292;SDS011;62290;59.420;17.842;2023-06-22T10:20:06;6.28;;;3.17;;
14292;SDS011;62290;59.420;17.842;2023-06-22T10:22:39;8.18;;;3.30;;
14292;SDS011;62290;59.420;17.842;2023-06-22T10:25:09;4.80;;;3.00;;
14292;SDS011;62290;59.420;17.842;2023-06-22T10:27:38;4.13;;;2.80;;
14292;SDS011;62290;59.420;17.842;2023-06-22T10:30:07;11.60;;;2.92;;
14292;SDS011;62290;59.420;17.842;2023-06-22T10:32:37;6.20;;;2.55;;
14292;SDS011;62290;59.420;17.842;2023-06-22T10:35:06;3.88;;;2.60;;
14292;SDS011;62290;59.420;17.842;2023-06-22T10:37:35;3.30;;;2.72;;
14292;SDS011;62290;59.420;17.842;2023-06-22T10:40:03;4.25;;;2.50;;
14292;SDS011;62290;59.420;17.842;2023-06-22T10:42:34;6.28;;;2.53;;
14292;SDS011;62290;59.420;17.842;2023-06-22T10:45:02;2.72;;;2.30;;
14292;SDS011;62290;59.420;17.842;2023-06-22T10:47:30;3.95;;;2.47;;
14292;SDS011;62290;59.420;17.842;2023-06-22T10:49:58;7.18;;;3.15;;
14292;SDS011;62290;59.420;17.842;2023-06-22T10:52:26;3.22;;;2.45;;
14292;SDS011;62290;59.420;17.842;2023-06-22T10:54:54;5.15;;;3.58;;
14292;SDS011;62290;59.420;17.842;2023-06-22T10:57:22;8.60;;;2.72;;
14292;SDS011;62290;59.420;17.842;2023-06-22T10:59:52;3.28;;;2.35;;
14292;SDS011;62290;59.420;17.842;2023-06-22T11:02:20;3.45;;;2.80;;
14292;SDS011;62290;59.420;17.842;2023-06-22T11:04:48;9.23;;;2.80;;
14292;SDS011;62290;59.420;17.842;2023-06-22T11:07:16;5.35;;;2.80;;
14292;SDS011;62290;59.420;17.842;2023-06-22T11:09:45;3.33;;;2.38;;
14292;SDS011;62290;59.420;17.842;2023-06-22T11:12:13;3.85;;;2.78;;
14292;SDS011;62290;59.420;17.842;2023-06-22T11:14:41;9.05;;;2.90;;
14292;SDS011;62290;59.420;17.842;2023-06-22T11:17:10;4.85;;;2.75;;
14292;SDS011;62290;59.420;17.842;2023-06-22T11:19:38;2.90;;;2.40;;
14292;SDS011;62290;59.420;17.842;2023-06-22T11:22:06;5.13;;;2.80;;
14292;SDS011;62290;59.420;17.842;2023-06-22T11:24:34;5.07;;;2.53;;
14292;SDS011;62290;59.420;17.842;2023-06-22T11:27:02;4.88;;;2.42;;
14292;SDS011;62290;59.420;17.842;2023-06-22T11:29:32;4.97;;;2.58;;
14292;SDS011;62290;59.420;17.842;2023-06-22T11:32:04;5.43;;;2.88;;
14292;SDS011;62290;59.420;17.842;2023-06-22T11:34:37;3.45;;;2.45;;
14292;SDS011;62290;59.420;17.842;2023-06-22T11:37:05;4.00;;;2.05;;
14292;SDS011;62290;59.420;17.842;2023-06-22T11:39:33;3.78;;;2.67;;
14292;SDS011;62290;59.420;17.842;2023-06-22T11:42:13;4.78;;;2.45;;
14292;SDS011;62290;59.420;17.842;2023-06-22T11:44:41;2.63;;;2.38;;
14292;SDS011;62290;59.420;17.842;2023-06-22T11:47:10;4.28;;;2.60;;
14292;SDS011;62290;59.420;17.842;2023-06-22T11:49:39;7.15;;;2.38;;
14292;SDS011;62290;59.420;17.842;2023-06-22T11:52:08;4.88;;;2.58;;
14292;SDS011;62290;59.420;17.842;2023-06-22T11:54:36;4.20;;;2.40;;
14292;SDS011;62290;59.420;17.842;2023-06-22T11:57:04;3.30;;;2.25;;
14292;SDS011;62290;59.420;17.842;2023-06-22T11:59:33;3.67;;;2.50;;
14292;SDS011;62290;59.420;17.842;2023-06-22T12:02:01;4.60;;;2.47;;
14292;SDS011;62290;59.420;17.842;2023-06-22T12:04:30;3.47;;;2.28;;
14292;SDS011;62290;59.420;17.842;2023-06-22T12:06:59;5.78;;;2.63;;
14292;SDS011;62290;59.420;17.842;2023-06-22T12:09:27;5.32;;;2.70;;
14292;SDS011;62290;59.420;17.842;2023-06-22T12:11:55;4.43;;;2.30;;
14292;SDS011;62290;59.420;17.842;2023-06-22T12:14:23;4.47;;;1.92;;
14292;SDS011;62290;59.420;17.842;2023-06-22T12:16:52;3.88;;;2.47;;
14292;SDS011;62290;59.420;17.842;2023-06-22T12:19:20;2.97;;;2.33;;
14292;SDS011;62290;59.420;17.842;2023-06-22T12:21:48;3.33;;;2.00;;
14292;SDS011;62290;59.420;17.842;2023-06-22T12:24:17;3.58;;;1.90;;
14292;SDS011;62290;59.420;17.842;2023-06-22T12:26:45;12.57;;;3.03;;
14292;SDS011;62290;59.420;17.842;2023-06-22T12:29:13;3.75;;;2.10;;
14292;SDS011;62290;59.420;17.842;2023-06-22T12:31:41;4.82;;;2.78;;
14292;SDS011;62290;59.420;17.842;2023-06-22T12:34:09;4.68;;;2.70;;
14292;SDS011;62290;59.420;17.842;2023-06-22T12:36:39;2.88;;;2.58;;
14292;SDS011;62290;59.420;17.842;2023-06-22T12:39:07;3.88;;;2.40;;
14292;SDS011;62290;59.420;17.842;2023-06-22T12:41:36;3.78;;;2.53;;
14292;SDS011;62290;59.420;17.842;2023-06-22T12:44:04;4.80;;;2.63;;
14292;SDS011;62290;59.420;17.842;2023-06-22T12:46:33;3.80;;;2.60;;
14292;SDS011;62290;59.420;17.842;2023-06-22T12:49:04;5.05;;;2.28;;
14292;SDS011;62290;59.420;17.842;2023-06-22T12:51:32;5.57;;;2.50;;
14292;SDS011;62290;59.420;17.842;2023-06-22T12:54:00;5.85;;;2.20;;
14292;SDS011;62290;59.420;17.842;2023-06-22T12:56:28;2.80;;;1.90;;
14292;SDS011;62290;59.420;17.842;2023-06-22T12:58:58;5.28;;;2.55;;
14292;SDS011;62290;59.420;17.842;2023-06-22T13:01:28;3.20;;;2.40;;
14292;SDS011;62290;59.420;17.842;2023-06-22T13:03:56;6.55;;;2.42;;
14292;SDS011;62290;59.420;17.842;2023-06-22T13:06:25;4.13;;;2.28;;
14292;SDS011;62290;59.420;17.842;2023-06-22T13:08:54;5.43;;;2.35;;
14292;SDS011;62290;59.420;17.842;2023-06-22T13:11:42;3.35;;;2.45;;
14292;SDS011;62290;59.420;17.842;2023-06-22T13:14:11;4.93;;;2.10;;
14292;SDS011;62290;59.420;17.842;2023-06-22T13:16:40;4.25;;;2.53;;
14292;SDS011;62290;59.420;17.842;2023-06-22T13:19:08;3.08;;;2.20;;
14292;SDS011;62290;59.420;17.842;2023-06-22T13:21:36;3.50;;;2.00;;
14292;SDS011;62290;59.420;17.842;2023-06-22T13:24:05;2.97;;;2.20;;
14292;SDS011;62290;59.420;17.842;2023-06-22T13:26:33;5.43;;;2.30;;
14292;SDS011;62290;59.420;17.842;2023-06-22T13:29:01;2.85;;;2.13;;
14292;SDS011;62290;59.420;17.842;2023-06-22T13:31:31;2.28;;;1.77;;
14292;SDS011;62290;59.420;17.842;2023-06-22T13:33:59;3.45;;;1.92;;
14292;SDS011;62290;59.420;17.842;2023-06-22T13:36:27;3.05;;;2.22;;
14292;SDS011;62290;59.420;17.842;2023-06-22T13:38:57;2.30;;;2.00;;
14292;SDS011;62290;59.420;17.842;2023-06-22T13:41:25;5.13;;;2.30;;
14292;SDS011;62290;59.420;17.842;2023-06-22T13:43:53;4.55;;;1.83;;
14292;SDS011;62290;59.420;17.842;2023-06-22T13:46:21;2.60;;;1.95;;
14292;SDS011;62290;59.420;17.842;2023-06-22T13:48:51;2.63;;;1.70;;
14292;SDS011;62290;59.420;17.842;2023-06-22T13:51:22;4.28;;;2.08;;
14292;SDS011;62290;59.420;17.842;2023-06-22T13:53:50;3.42;;;1.67;;
14292;SDS011;62290;59.420;17.842;2023-06-22T13:56:18;4.03;;;2.30;;
14292;SDS011;62290;59.420;17.842;2023-06-22T13:58:46;2.47;;;1.60;;
14292;SDS011;62290;59.420;17.842;2023-06-22T14:01:15;7.43;;;1.90;;
14292;SDS011;62290;59.420;17.842;2023-06-22T14:04:04;7.28;;;2.42;;
14292;SDS011;62290;59.420;17.842;2023-06-22T14:06:32;2.97;;;1.58;;
14292;SDS011;62290;59.420;17.842;2023-06-22T14:09:00;5.43;;;1.75;;
14292;SDS011;62290;59.420;17.842;2023-06-22T14:11:29;3.03;;;1.70;;
14292;SDS011;62290;59.420;17.842;2023-06-22T14:13:57;2.72;;;1.50;;
14292;SDS011;62290;59.420;17.842;2023-06-22T14:16:25;2.50;;;1.85;;
14292;SDS011;62290;59.420;17.842;2023-06-22T14:18:53;3.72;;;1.58;;
14292;SDS011;62290;59.420;17.842;2023-06-22T14:21:25;4.45;;;1.83;;
14292;SDS011;62290;59.420;17.842;2023-06-22T14:23:53;4.25;;;1.80;;
14292;SDS011;62290;59.420;17.842;2023-06-22T14:26:21;6.47;;;1.73;;
14292;SDS011;62290;59.420;17.842;2023-06-22T14:28:49;3.75;;;1.70;;
14292;SDS011;62290;59.420;17.842;2023-06-22T14:31:17;3.65;;;1.70;;
14292;SDS011;62290;59.420;17.842;2023-06-22T14:33:47;2.95;;;1.73;;
14292;SDS011;62290;59.420;17.842;2023-06-22T14:36:16;3.08;;;1.70;;
14292;SDS011;62290;59.420;17.842;2023-06-22T14:38:46;3.88;;;1.85;;
14292;SDS011;62290;59.420;17.842;2023-06-22T14:41:14;2.58;;;1.70;;
14292;SDS011;62290;59.420;17.842;2023-06-22T14:43:44;2.95;;;1.73;;
14292;SDS011;62290;59.420;17.842;2023-06-22T14:46:14;2.28;;;1.80;;